sensor_id;sensor_type;location;lat;lon;timestamp;pressure;altitude;pressure_sealevel;temperature;humidity
61119;BME280;51448;51.660;5.824;2023-01-26T00:01:50;102453.72;;;-0.97;100.00
61119;BME280;51448;51.660;5.824;2023-01-26T00:04:18;102450.19;;;-0.99;100.00
61119;BME280;51448;51.660;5.824;2023-01-26T00:06:45;102451.88;;;-0.99;100.00
61119;BME280;51448;51.660;5.824;2023-01-26T00:09:13;102438.88;;;-1.01;100.00
61119;BME280;51448;51.660;5.824;2023-01-26T00:11:41;102444.88;;;-1.02;100.00
61119;BME280;51448;51.660;5.824;2023-01-26T00:14:09;102437.94;;;-1.03;100.00
61119;BME280;51448;51.660;5.824;2023-01-26T00:16:36;102433.59;;;-1.04;100.00
61119;BME280;51448;51.660;5.824;2023-01-26T00:19:05;102426.66;;;-1.05;100.00
61119;BME280;51448;51.660;5.824;2023-01-26T00:21:32;102419.81;;;-1.05;100.00
61119;BME280;51448;51.660;5.824;2023-01-26T00:24:00;102425.84;;;-1.04;100.00
61119;BME280;51448;51.660;5.824;2023-01-26T00:26:28;102418.09;;;-1.04;100.00
61119;BME280;51448;51.660;5.824;2023-01-26T00:28:56;102424.06;;;-1.05;100.00
61119;BME280;51448;51.660;5.824;2023-01-26T00:31:26;102419.75;;;-1.06;100.00
61119;BME280;51448;51.660;5.824;2023-01-26T00:33:55;102413.75;;;-1.05;100.00
61119;BME280;51448;51.660;5.824;2023-01-26T00:36:23;102414.66;;;-1.05;100.00
61119;BME280;51448;51.660;5.824;2023-01-26T00:38:51;102403.50;;;-1.04;100.00
61119;BME280;51448;51.660;5.824;2023-01-26T00:41:18;102402.72;;;-1.01;100.00
61119;BME280;51448;51.660;5.824;2023-01-26T00:44:04;102394.94;;;-1.03;100.00
61119;BME280;51448;51.660;5.824;2023-01-26T00:46:32;102402.63;;;-1.04;100.00
61119;BME280;51448;51.660;5.824;2023-01-26T00:48:59;102402.72;;;-1.01;100.00
61119;BME280;51448;51.660;5.824;2023-01-26T00:51:27;102394.19;;;-1.00;100.00
61119;BME280;51448;51.660;5.824;2023-01-26T00:53:55;102388.19;;;-0.99;100.00
61119;BME280;51448;51.660;5.824;2023-01-26T00:56:23;102384.66;;;-1.01;100.00
61119;BME280;51448;51.660;5.824;2023-01-26T00:58:54;102379.44;;;-1.03;100.00
61119;BME280;51448;51.660;5.824;2023-01-26T01:01:21;102374.31;;;-1.01;100.00
61119;BME280;51448;51.660;5.824;2023-01-26T01:03:49;102374.31;;;-1.01;100.00
61119;BME280;51448;51.660;5.824;2023-01-26T01:06:18;102378.63;;;-1.02;100.00
61119;BME280;51448;51.660;5.824;2023-01-26T01:08:46;102375.16;;;-1.02;100.00
61119;BME280;51448;51.660;5.824;2023-01-26T01:11:13;102375.09;;;-1.04;100.00
61119;BME280;51448;51.660;5.824;2023-01-26T01:13:41;102366.47;;;-1.04;100.00
61119;BME280;51448;51.660;5.824;2023-01-26T01:16:11;102359.66;;;-1.02;100.00
61119;BME280;51448;51.660;5.824;2023-01-26T01:18:41;102366.53;;;-1.03;100.00
61119;BME280;51448;51.660;5.824;2023-01-26T01:21:12;102372.41;;;-1.05;100.00
61119;BME280;51448;51.660;5.824;2023-01-26T01:23:42;102377.53;;;-1.07;100.00
61119;BME280;51448;51.660;5.824;2023-01-26T01:26:10;102368.09;;;-1.06;100.00
61119;BME280;51448;51.660;5.824;2023-01-26T01:28:39;102361.28;;;-1.04;100.00
61119;BME280;51448;51.660;5.824;2023-01-26T01:31:13;102362.38;;;-0.99;100.00
61119;BME280;51448;51.660;5.824;2023-01-26T01:33:42;102364.91;;;-1.00;100.00
61119;BME280;51448;51.660;5.824;2023-01-26T01:36:13;102368.34;;;-1.00;100.00
61119;BME280;51448;51.660;5.824;2023-01-26T01:38:43;102367.41;;;-1.02;100.00
61119;BME280;51448;51.660;5.824;2023-01-26T01:41:13;102363.94;;;-1.03;100.00
61119;BME280;51448;51.660;5.824;2023-01-26T01:43:43;102365.78;;;-1.00;100.00
61119;BME280;51448;51.660;5.824;2023-01-26T01:49:02;102372.00;;;-0.95;100.00
61119;BME280;51448;51.660;5.824;2023-01-26T01:51:44;102372.91;;;-0.94;100.00
61119;BME280;51448;51.660;5.824;2023-01-26T01:54:21;102372.91;;;-0.94;100.00
61119;BME280;51448;51.660;5.824;2023-01-26T01:56:57;102375.53;;;-0.93;100.00
61119;BME280;51448;51.660;5.824;2023-01-26T01:59:29;102374.75;;;-0.92;100.00
61119;BME280;51448;51.660;5.824;2023-01-26T02:01:58;102363.56;;;-0.91;100.00
61119;BME280;51448;51.660;5.824;2023-01-26T02:04:26;102361.94;;;-0.89;100.00
61119;BME280;51448;51.660;5.824;2023-01-26T02:06:56;102362.91;;;-0.87;100.00
61119;BME280;51448;51.660;5.824;2023-01-26T02:09:32;102361.22;;;-0.86;100.00
61119;BME280;51448;51.660;5.824;2023-01-26T02:12:25;102360.31;;;-0.87;100.00
61119;BME280;51448;51.660;5.824;2023-01-26T02:14:56;102355.28;;;-0.84;100.00
61119;BME280;51448;51.660;5.824;2023-01-26T02:17:25;102357.03;;;-0.83;100.00
61119;BME280;51448;51.660;5.824;2023-01-26T02:20:03;102352.03;;;-0.79;100.00
61119;BME280;51448;51.660;5.824;2023-01-26T02:22:46;102342.56;;;-0.79;100.00
61119;BME280;51448;51.660;5.824;2023-01-26T02:28:24;102350.31;;;-0.79;100.00
61119;BME280;51448;51.660;5.824;2023-01-26T02:30:54;102351.19;;;-0.78;100.00
61119;BME280;51448;51.660;5.824;2023-01-26T02:33:26;102349.56;;;-0.76;100.00
61119;BME280;51448;51.660;5.824;2023-01-26T02:36:00;102341.81;;;-0.76;100.00
61119;BME280;51448;51.660;5.824;2023-01-26T02:38:43;102339.22;;;-0.76;100.00
61119;BME280;51448;51.660;5.824;2023-01-26T02:41:18;102346.09;;;-0.77;100.00
61119;BME280;51448;51.660;5.824;2023-01-26T02:44:08;102345.28;;;-0.76;100.00
61119;BME280;51448;51.660;5.824;2023-01-26T02:46:38;102333.19;;;-0.77;100.00
61119;BME280;51448;51.660;5.824;2023-01-26T02:49:06;102331.44;;;-0.78;100.00
61119;BME280;51448;51.660;5.824;2023-01-26T02:51:52;102324.47;;;-0.79;100.00
61119;BME280;51448;51.660;5.824;2023-01-26T02:54:20;102328.84;;;-0.78;100.00
61119;BME280;51448;51.660;5.824;2023-01-26T02:57:06;102328.84;;;-0.78;100.00
61119;BME280;51448;51.660;5.824;2023-01-26T02:59:34;102330.66;;;-0.75;100.00
61119;BME280;51448;51.660;5.824;2023-01-26T03:02:01;102326.44;;;-0.73;100.00
61119;BME280;51448;51.660;5.824;2023-01-26T03:04:29;102334.28;;;-0.72;100.00
61119;BME280;51448;51.660;5.824;2023-01-26T03:06:57;102334.31;;;-0.70;100.00
61119;BME280;51448;51.660;5.824;2023-01-26T03:09:24;102334.31;;;-0.70;100.00
61119;BME280;51448;51.660;5.824;2023-01-26T03:11:52;102326.53;;;-0.72;100.00
61119;BME280;51448;51.660;5.824;2023-01-26T03:14:19;102323.88;;;-0.73;100.00
61119;BME280;51448;51.660;5.824;2023-01-26T03:16:48;102327.25;;;-0.74;100.00
61119;BME280;51448;51.660;5.824;2023-01-26T03:19:16;102324.75;;;-0.73;100.00
61119;BME280;51448;51.660;5.824;2023-01-26T03:22:09;102315.16;;;-0.75;100.00
61119;BME280;51448;51.660;5.824;2023-01-26T03:24:57;102316.81;;;-0.77;100.00
61119;BME280;51448;51.660;5.824;2023-01-26T03:27:46;102316.81;;;-0.77;100.00
61119;BME280;51448;51.660;5.824;2023-01-26T03:30:17;102319.38;;;-0.77;100.00
61119;BME280;51448;51.660;5.824;2023-01-26T03:32:47;102322.09;;;-0.74;100.00
61119;BME280;51448;51.660;5.824;2023-01-26T03:35:16;102321.34;;;-0.72;100.00
61119;BME280;51448;51.660;5.824;2023-01-26T03:37:49;102323.97;;;-0.70;100.00
61119;BME280;51448;51.660;5.824;2023-01-26T03:40:37;102316.38;;;-0.67;100.00
61119;BME280;51448;51.660;5.824;2023-01-26T03:43:24;102323.34;;;-0.65;100.00
61119;BME280;51448;51.660;5.824;2023-01-26T03:46:10;102320.00;;;-0.62;100.00
61119;BME280;51448;51.660;5.824;2023-01-26T03:48:56;102317.44;;;-0.62;100.00
61119;BME280;51448;51.660;5.824;2023-01-26T03:51:43;102326.13;;;-0.60;100.00
61119;BME280;51448;51.660;5.824;2023-01-26T03:54:29;102320.00;;;-0.62;100.00
61119;BME280;51448;51.660;5.824;2023-01-26T03:57:15;102317.50;;;-0.61;100.00
61119;BME280;51448;51.660;5.824;2023-01-26T03:59:43;102314.91;;;-0.61;100.00
61119;BME280;51448;51.660;5.824;2023-01-26T04:02:16;102325.25;;;-0.61;100.00
61119;BME280;51448;51.660;5.824;2023-01-26T04:05:03;102319.22;;;-0.61;100.00
61119;BME280;51448;51.660;5.824;2023-01-26T04:07:54;102308.88;;;-0.61;100.00
61119;BME280;51448;51.660;5.824;2023-01-26T04:10:40;102308.97;;;-0.58;100.00
61119;BME280;51448;51.660;5.824;2023-01-26T04:13:08;102315.09;;;-0.56;100.00
61119;BME280;51448;51.660;5.824;2023-01-26T04:16:00;102302.16;;;-0.56;100.00
61119;BME280;51448;51.660;5.824;2023-01-26T04:18:47;102312.66;;;-0.53;100.00
61119;BME280;51448;51.660;5.824;2023-01-26T04:21:34;102318.84;;;-0.49;100.00
61119;BME280;51448;51.660;5.824;2023-01-26T04:24:22;102317.19;;;-0.47;100.00
61119;BME280;51448;51.660;5.824;2023-01-26T04:26:54;102314.66;;;-0.46;100.00
61119;BME280;51448;51.660;5.824;2023-01-26T04:29:26;102320.50;;;-0.50;100.00
61119;BME280;51448;51.660;5.824;2023-01-26T04:31:54;102317.13;;;-0.49;100.00
61119;BME280;51448;51.660;5.824;2023-01-26T04:34:22;102319.09;;;-0.43;100.00
61119;BME280;51448;51.660;5.824;2023-01-26T04:36:50;102320.84;;;-0.42;100.00
61119;BME280;51448;51.660;5.824;2023-01-26T04:39:20;102319.19;;;-0.40;100.00
61119;BME280;51448;51.660;5.824;2023-01-26T04:41:52;102316.69;;;-0.38;100.00
61119;BME280;51448;51.660;5.824;2023-01-26T04:44:20;102322.78;;;-0.36;100.00
61119;BME280;51448;51.660;5.824;2023-01-26T04:46:48;102314.28;;;-0.34;100.00
61119;BME280;51448;51.660;5.824;2023-01-26T04:49:17;102316.09;;;-0.31;100.00
61119;BME280;51448;51.660;5.824;2023-01-26T04:51:44;102302.44;;;-0.29;100.00
61119;BME280;51448;51.660;5.824;2023-01-26T04:54:12;102313.75;;;-0.25;100.00
61119;BME280;51448;51.660;5.824;2023-01-26T04:56:43;102309.53;;;-0.23;100.00
61119;BME280;51448;51.660;5.824;2023-01-26T04:59:11;102310.47;;;-0.21;100.00
61119;BME280;51448;51.660;5.824;2023-01-26T05:01:40;102309.72;;;-0.18;100.00
61119;BME280;51448;51.660;5.824;2023-01-26T05:04:10;102302.91;;;-0.16;100.00
61119;BME280;51448;51.660;5.824;2023-01-26T05:06:44;102305.53;;;-0.15;100.00
61119;BME280;51448;51.660;5.824;2023-01-26T05:09:12;102304.81;;;-0.12;100.00
61119;BME280;51448;51.660;5.824;2023-01-26T05:11:42;102294.50;;;-0.11;100.00
61119;BME280;51448;51.660;5.824;2023-01-26T05:14:09;102294.56;;;-0.09;100.00
61119;BME280;51448;51.660;5.824;2023-01-26T05:17:03;102291.09;;;-0.10;100.00
61119;BME280;51448;51.660;5.824;2023-01-26T05:19:53;102291.09;;;-0.10;100.00
61119;BME280;51448;51.660;5.824;2023-01-26T05:22:32;102295.44;;;-0.09;100.00
61119;BME280;51448;51.660;5.824;2023-01-26T05:25:19;102291.16;;;-0.08;100.00
61119;BME280;51448;51.660;5.824;2023-01-26T05:28:00;102298.94;;;-0.08;100.00
61119;BME280;51448;51.660;5.824;2023-01-26T05:30:29;102297.22;;;-0.08;100.00
61119;BME280;51448;51.660;5.824;2023-01-26T05:33:01;102298.97;;;-0.07;100.00
61119;BME280;51448;51.660;5.824;2023-01-26T05:35:31;102302.50;;;-0.05;100.00
61119;BME280;51448;51.660;5.824;2023-01-26T05:37:59;102299.91;;;-0.05;100.00
61119;BME280;51448;51.660;5.824;2023-01-26T05:40:31;102300.75;;;-0.06;100.00
61119;BME280;51448;51.660;5.824;2023-01-26T05:42:59;102300.75;;;-0.06;100.00
61119;BME280;51448;51.660;5.824;2023-01-26T05:45:50;102302.50;;;-0.05;100.00
61119;BME280;51448;51.660;5.824;2023-01-26T05:48:19;102305.22;;;-0.02;100.00
61119;BME280;51448;51.660;5.824;2023-01-26T05:50:50;102307.81;;;-0.02;100.00
61119;BME280;51448;51.660;5.824;2023-01-26T05:53:21;102306.16;;;0.01;100.00
61119;BME280;51448;51.660;5.824;2023-01-26T05:55:49;102311.44;;;0.04;100.00
61119;BME280;51448;51.660;5.824;2023-01-26T05:58:22;102300.28;;;0.05;100.00
61119;BME280;51448;51.660;5.824;2023-01-26T06:00:50;102306.41;;;0.07;100.00
61119;BME280;51448;51.660;5.824;2023-01-26T06:03:24;102308.09;;;0.06;100.00
61119;BME280;51448;51.660;5.824;2023-01-26T06:05:53;102302.97;;;0.08;100.00
61119;BME280;51448;51.660;5.824;2023-01-26T06:08:31;102299.44;;;0.06;100.00
61119;BME280;51448;51.660;5.824;2023-01-26T06:11:27;102302.88;;;0.05;100.00
61119;BME280;51448;51.660;5.824;2023-01-26T06:14:21;102314.97;;;0.06;100.00
61119;BME280;51448;51.660;5.824;2023-01-26T06:16:49;102310.72;;;0.08;100.00
61119;BME280;51448;51.660;5.824;2023-01-26T06:19:18;102315.91;;;0.08;100.00
61119;BME280;51448;51.660;5.824;2023-01-26T06:21:51;102309.03;;;0.08;100.00
61119;BME280;51448;51.660;5.824;2023-01-26T06:24:19;102316.81;;;0.08;100.00
61119;BME280;51448;51.660;5.824;2023-01-26T06:26:47;102307.34;;;0.09;100.00
61119;BME280;51448;51.660;5.824;2023-01-26T06:29:17;102309.84;;;0.07;100.00
61119;BME280;51448;51.660;5.824;2023-01-26T06:31:44;102314.22;;;0.08;100.00
61119;BME280;51448;51.660;5.824;2023-01-26T06:34:12;102312.44;;;0.07;100.00
61119;BME280;51448;51.660;5.824;2023-01-26T06:36:41;102314.97;;;0.06;100.00
61119;BME280;51448;51.660;5.824;2023-01-26T06:39:17;102314.16;;;0.07;100.00
61119;BME280;51448;51.660;5.824;2023-01-26T06:41:45;102318.50;;;0.08;100.00
61119;BME280;51448;51.660;5.824;2023-01-26T06:44:12;102320.34;;;0.10;100.00
61119;BME280;51448;51.660;5.824;2023-01-26T06:46:40;102313.44;;;0.11;100.00
61119;BME280;51448;51.660;5.824;2023-01-26T06:49:08;102316.09;;;0.12;100.00
61119;BME280;51448;51.660;5.824;2023-01-26T06:51:43;102320.50;;;0.15;100.00
61119;BME280;51448;51.660;5.824;2023-01-26T06:54:15;102324.84;;;0.16;100.00
61119;BME280;51448;51.660;5.824;2023-01-26T06:57:01;102318.72;;;0.14;100.00
61119;BME280;51448;51.660;5.824;2023-01-26T06:59:44;102328.19;;;0.13;100.00
61119;BME280;51448;51.660;5.824;2023-01-26T07:02:34;102323.91;;;0.14;100.00
61119;BME280;51448;51.660;5.824;2023-01-26T07:05:02;102326.56;;;0.15;100.00
61119;BME280;51448;51.660;5.824;2023-01-26T07:07:30;102329.22;;;0.17;100.00
61119;BME280;51448;51.660;5.824;2023-01-26T07:09:57;102327.44;;;0.16;100.00
61119;BME280;51448;51.660;5.824;2023-01-26T07:12:25;102326.56;;;0.15;100.00
61119;BME280;51448;51.660;5.824;2023-01-26T07:14:52;102325.69;;;0.15;100.00
61119;BME280;51448;51.660;5.824;2023-01-26T07:17:20;102336.09;;;0.16;100.00
61119;BME280;51448;51.660;5.824;2023-01-26T07:19:47;102323.19;;;0.18;100.00
61119;BME280;51448;51.660;5.824;2023-01-26T07:22:15;102334.47;;;0.20;100.00
61119;BME280;51448;51.660;5.824;2023-01-26T07:24:42;102335.38;;;0.21;100.00
61119;BME280;51448;51.660;5.824;2023-01-26T07:27:10;102336.25;;;0.21;100.00
61119;BME280;51448;51.660;5.824;2023-01-26T07:29:37;102335.38;;;0.21;100.00
61119;BME280;51448;51.660;5.824;2023-01-26T07:32:05;102341.44;;;0.21;100.00
61119;BME280;51448;51.660;5.824;2023-01-26T07:34:32;102343.19;;;0.22;100.00
61119;BME280;51448;51.660;5.824;2023-01-26T07:37:00;102339.72;;;0.22;100.00
61119;BME280;51448;51.660;5.824;2023-01-26T07:39:28;102347.44;;;0.20;100.00
61119;BME280;51448;51.660;5.824;2023-01-26T07:41:55;102347.44;;;0.20;100.00
61119;BME280;51448;51.660;5.824;2023-01-26T07:44:46;102342.25;;;0.20;100.00
61119;BME280;51448;51.660;5.824;2023-01-26T07:47:13;102347.56;;;0.23;100.00
61119;BME280;51448;51.660;5.824;2023-01-26T07:49:41;102350.16;;;0.23;100.00
61119;BME280;51448;51.660;5.824;2023-01-26T07:52:09;102346.72;;;0.24;100.00
61119;BME280;51448;51.660;5.824;2023-01-26T07:54:37;102352.84;;;0.26;100.00
61119;BME280;51448;51.660;5.824;2023-01-26T07:57:04;102345.13;;;0.28;100.00
61119;BME280;51448;51.660;5.824;2023-01-26T07:59:34;102352.97;;;0.29;100.00
61119;BME280;51448;51.660;5.824;2023-01-26T08:02:01;102359.09;;;0.31;100.00
61119;BME280;51448;51.660;5.824;2023-01-26T08:04:29;102351.38;;;0.33;100.00
61119;BME280;51448;51.660;5.824;2023-01-26T08:06:57;102352.34;;;0.35;100.00
61119;BME280;51448;51.660;5.824;2023-01-26T08:09:24;102353.22;;;0.35;100.00
61119;BME280;51448;51.660;5.824;2023-01-26T08:11:55;102358.47;;;0.38;100.00
61119;BME280;51448;51.660;5.824;2023-01-26T08:14:24;102355.84;;;0.37;100.00
61119;BME280;51448;51.660;5.824;2023-01-26T08:17:07;102360.19;;;0.38;100.00
61119;BME280;51448;51.660;5.824;2023-01-26T08:19:35;102352.50;;;0.39;100.00
61119;BME280;51448;51.660;5.824;2023-01-26T08:22:02;102349.91;;;0.39;100.00
61119;BME280;51448;51.660;5.824;2023-01-26T08:24:30;102353.38;;;0.40;100.00
61119;BME280;51448;51.660;5.824;2023-01-26T08:26:57;102363.72;;;0.40;100.00
61119;BME280;51448;51.660;5.824;2023-01-26T08:29:25;102363.78;;;0.42;100.00
61119;BME280;51448;51.660;5.824;2023-01-26T08:31:52;102362.06;;;0.42;100.00
61119;BME280;51448;51.660;5.824;2023-01-26T08:34:20;102362.06;;;0.42;100.00
61119;BME280;51448;51.660;5.824;2023-01-26T08:36:52;102366.38;;;0.42;100.00
61119;BME280;51448;51.660;5.824;2023-01-26T08:39:20;102362.94;;;0.43;100.00
61119;BME280;51448;51.660;5.824;2023-01-26T08:41:47;102368.25;;;0.46;100.00
61119;BME280;51448;51.660;5.824;2023-01-26T08:44:15;102370.00;;;0.47;100.00
61119;BME280;51448;51.660;5.824;2023-01-26T08:46:43;102372.56;;;0.45;100.00
61119;BME280;51448;51.660;5.824;2023-01-26T08:49:10;102369.19;;;0.48;100.00
61119;BME280;51448;51.660;5.824;2023-01-26T08:51:38;102380.50;;;0.50;100.00
61119;BME280;51448;51.660;5.824;2023-01-26T08:54:06;102376.25;;;0.52;100.00
61119;BME280;51448;51.660;5.824;2023-01-26T08:56:36;102372.84;;;0.53;100.00
61119;BME280;51448;51.660;5.824;2023-01-26T08:59:03;102384.13;;;0.55;100.00
61119;BME280;51448;51.660;5.824;2023-01-26T09:01:31;102378.13;;;0.56;100.00
61119;BME280;51448;51.660;5.824;2023-01-26T09:03:59;102381.66;;;0.58;100.00
61119;BME280;51448;51.660;5.824;2023-01-26T09:06:27;102383.41;;;0.59;100.00
61119;BME280;51448;51.660;5.824;2023-01-26T09:08:56;102377.44;;;0.60;100.00
61119;BME280;51448;51.660;5.824;2023-01-26T09:11:24;102379.19;;;0.61;100.00
61119;BME280;51448;51.660;5.824;2023-01-26T09:13:51;102379.19;;;0.61;100.00
61119;BME280;51448;51.660;5.824;2023-01-26T09:16:25;102378.38;;;0.62;100.00
61119;BME280;51448;51.660;5.824;2023-01-26T09:18:52;102382.72;;;0.63;100.00
61119;BME280;51448;51.660;5.824;2023-01-26T09:21:21;102381.06;;;0.65;100.00
61119;BME280;51448;51.660;5.824;2023-01-26T09:23:50;102379.38;;;0.66;100.00
61119;BME280;51448;51.660;5.824;2023-01-26T09:26:18;102382.00;;;0.67;100.00
61119;BME280;51448;51.660;5.824;2023-01-26T09:28:49;102376.09;;;0.71;100.00
61119;BME280;51448;51.660;5.824;2023-01-26T09:31:17;102384.06;;;0.76;100.00
61119;BME280;51448;51.660;5.824;2023-01-26T09:33:47;102381.66;;;0.80;100.00
61119;BME280;51448;51.660;5.824;2023-01-26T09:36:15;102385.28;;;0.86;100.00
61119;BME280;51448;51.660;5.824;2023-01-26T09:38:43;102384.53;;;0.88;100.00
61119;BME280;51448;51.660;5.824;2023-01-26T09:41:36;102390.69;;;0.92;100.00
61119;BME280;51448;51.660;5.824;2023-01-26T09:44:19;102391.53;;;0.91;100.00
61119;BME280;51448;51.660;5.824;2023-01-26T09:47:13;102390.81;;;0.95;100.00
61119;BME280;51448;51.660;5.824;2023-01-26T09:50:03;102384.78;;;0.96;100.00
61119;BME280;51448;51.660;5.824;2023-01-26T09:52:50;102385.69;;;0.96;100.00
61119;BME280;51448;51.660;5.824;2023-01-26T09:55:24;102393.47;;;0.96;100.00
61119;BME280;51448;51.660;5.824;2023-01-26T09:58:02;102391.75;;;0.97;100.00
61119;BME280;51448;51.660;5.824;2023-01-26T10:00:47;102384.84;;;0.97;100.00
61119;BME280;51448;51.660;5.824;2023-01-26T10:03:46;102385.72;;;0.98;100.00
61119;BME280;51448;51.660;5.824;2023-01-26T10:06:25;102386.63;;;0.98;100.00
61119;BME280;51448;51.660;5.824;2023-01-26T10:09:18;102383.31;;;1.03;100.00
61119;BME280;51448;51.660;5.824;2023-01-26T10:11:57;102379.00;;;1.03;100.00
61119;BME280;51448;51.660;5.824;2023-01-26T10:14:42;102386.88;;;1.06;100.00
61119;BME280;51448;51.660;5.824;2023-01-26T10:17:20;102377.44;;;1.08;100.00
61119;BME280;51448;51.660;5.824;2023-01-26T10:23:32;102373.25;;;1.12;100.00
61119;BME280;51448;51.660;5.824;2023-01-26T10:26:14;102368.19;;;1.15;100.00
61119;BME280;51448;51.660;5.824;2023-01-26T10:28:45;102358.78;;;1.17;100.00
61119;BME280;51448;51.660;5.824;2023-01-26T10:31:16;102371.81;;;1.20;100.00
61119;BME280;51448;51.660;5.824;2023-01-26T10:33:54;102366.69;;;1.22;100.00
61119;BME280;51448;51.660;5.824;2023-01-26T10:36:36;102377.16;;;1.25;100.00
61119;BME280;51448;51.660;5.824;2023-01-26T10:39:08;102378.09;;;1.27;100.00
61119;BME280;51448;51.660;5.824;2023-01-26T10:42:01;102373.03;;;1.30;100.00
61119;BME280;51448;51.660;5.824;2023-01-26T10:44:34;102384.28;;;1.30;100.00
61119;BME280;51448;51.660;5.824;2023-01-26T10:47:18;102385.16;;;1.31;100.00
61119;BME280;51448;51.660;5.824;2023-01-26T10:49:48;102379.94;;;1.29;100.00
61119;BME280;51448;51.660;5.824;2023-01-26T10:52:20;102381.75;;;1.32;100.00
61119;BME280;51448;51.660;5.824;2023-01-26T10:57:40;102378.44;;;1.36;100.00
61119;BME280;51448;51.660;5.824;2023-01-26T11:00:21;102380.28;;;1.40;100.00
61119;BME280;51448;51.660;5.824;2023-01-26T11:03:03;102386.41;;;1.42;100.00
61119;BME280;51448;51.660;5.824;2023-01-26T11:06:26;102375.31;;;1.46;100.00
61119;BME280;51448;51.660;5.824;2023-01-26T11:11:54;102375.53;;;1.52;100.00
61119;BME280;51448;51.660;5.824;2023-01-26T11:14:21;102371.28;;;1.54;100.00
61119;BME280;51448;51.660;5.824;2023-01-26T11:20:04;102371.75;;;1.68;100.00
61119;BME280;51448;51.660;5.824;2023-01-26T11:22:45;102368.56;;;1.77;100.00
61119;BME280;51448;51.660;5.824;2023-01-26T11:25:34;102370.50;;;1.84;100.00
61119;BME280;51448;51.660;5.824;2023-01-26T11:37:42;102378.34;;;2.13;100.00
61119;BME280;51448;51.660;5.824;2023-01-26T11:40:23;102363.00;;;2.20;100.00
61119;BME280;51448;51.660;5.824;2023-01-26T11:51:57;102359.78;;;2.58;100.00
61119;BME280;51448;51.660;5.824;2023-01-26T12:00:25;102352.84;;;2.87;100.00
61119;BME280;51448;51.660;5.824;2023-01-26T12:06:09;102352.44;;;3.04;100.00
61119;BME280;51448;51.660;5.824;2023-01-26T12:11:32;102348.56;;;3.21;100.00
61119;BME280;51448;51.660;5.824;2023-01-26T12:14:22;102348.81;;;3.30;100.00
61119;BME280;51448;51.660;5.824;2023-01-26T12:22:58;102342.50;;;3.55;100.00
61119;BME280;51448;51.660;5.824;2023-01-26T12:25:44;102336.59;;;3.62;100.00
61119;BME280;51448;51.660;5.824;2023-01-26T12:28:31;102327.25;;;3.69;100.00
61119;BME280;51448;51.660;5.824;2023-01-26T12:33:53;102324.09;;;3.82;100.00
61119;BME280;51448;51.660;5.824;2023-01-26T12:36:32;102322.63;;;3.94;100.00
61119;BME280;51448;51.660;5.824;2023-01-26T12:45:09;102303.22;;;4.19;100.00
61119;BME280;51448;51.660;5.824;2023-01-26T12:47:50;102306.88;;;4.27;100.00
61119;BME280;51448;51.660;5.824;2023-01-26T12:50:38;102307.03;;;4.35;100.00
61119;BME280;51448;51.660;5.824;2023-01-26T12:53:13;102301.13;;;4.43;100.00
61119;BME280;51448;51.660;5.824;2023-01-26T12:56:20;102296.19;;;4.56;100.00
61119;BME280;51448;51.660;5.824;2023-01-26T12:58:56;102288.47;;;4.62;100.00
61119;BME280;51448;51.660;5.824;2023-01-26T13:01:37;102282.63;;;4.74;100.00
61119;BME280;51448;51.660;5.824;2023-01-26T13:04:11;102285.38;;;4.81;100.00
61119;BME280;51448;51.660;5.824;2023-01-26T13:06:42;102290.84;;;4.95;100.00
61119;BME280;51448;51.660;5.824;2023-01-26T13:09:22;102287.59;;;5.07;100.00
61119;BME280;51448;51.660;5.824;2023-01-26T13:11:52;102284.16;;;5.10;100.00
61119;BME280;51448;51.660;5.824;2023-01-26T13:14:35;102284.31;;;5.20;100.00
61119;BME280;51448;51.660;5.824;2023-01-26T13:24:47;102276.53;;;5.77;100.00
61119;BME280;51448;51.660;5.824;2023-01-26T13:27:55;102276.72;;;5.89;100.00
61119;BME280;51448;51.660;5.824;2023-01-26T13:30:26;102276.00;;;5.98;100.00
61119;BME280;51448;51.660;5.824;2023-01-26T13:35:39;102271.81;;;6.11;100.00
61119;BME280;51448;51.660;5.824;2023-01-26T13:38:17;102260.56;;;6.15;100.00
61119;BME280;51448;51.660;5.824;2023-01-26T13:40:49;102261.47;;;6.15;100.00
61119;BME280;51448;51.660;5.824;2023-01-26T13:46:09;102259.09;;;6.37;100.00
61119;BME280;51448;51.660;5.824;2023-01-26T13:48:46;102253.09;;;6.45;100.00
61119;BME280;51448;51.660;5.824;2023-01-26T13:51:21;102258.47;;;6.56;100.00
61119;BME280;51448;51.660;5.824;2023-01-26T13:54:02;102253.28;;;6.61;100.00
61119;BME280;51448;51.660;5.824;2023-01-26T13:56:34;102252.44;;;6.63;100.00
61119;BME280;51448;51.660;5.824;2023-01-26T13:59:14;102268.16;;;6.68;100.00
61119;BME280;51448;51.660;5.824;2023-01-26T14:01:49;102274.28;;;6.70;100.00
61119;BME280;51448;51.660;5.824;2023-01-26T14:04:23;102261.22;;;6.70;100.00
61119;BME280;51448;51.660;5.824;2023-01-26T14:07:05;102261.22;;;6.70;100.00
61119;BME280;51448;51.660;5.824;2023-01-26T14:09:57;102267.38;;;6.75;100.00
61119;BME280;51448;51.660;5.824;2023-01-26T14:12:42;102269.16;;;6.79;100.00
61119;BME280;51448;51.660;5.824;2023-01-26T14:15:21;102265.72;;;6.83;100.00
61119;BME280;51448;51.660;5.824;2023-01-26T14:17:55;102267.47;;;6.83;100.00
61119;BME280;51448;51.660;5.824;2023-01-26T14:20:34;102273.56;;;6.83;100.00
61119;BME280;51448;51.660;5.824;2023-01-26T14:23:13;102267.50;;;6.88;100.00
61119;BME280;51448;51.660;5.824;2023-01-26T14:26:32;102274.50;;;6.87;100.00
61119;BME280;51448;51.660;5.824;2023-01-26T14:28:47;102280.56;;;6.86;100.00
61119;BME280;51448;51.660;5.824;2023-01-26T14:31:22;102275.34;;;6.88;100.00
61119;BME280;51448;51.660;5.824;2023-01-26T14:33:53;102279.72;;;6.89;100.00
61119;BME280;51448;51.660;5.824;2023-01-26T14:36:38;102283.22;;;6.89;100.00
61119;BME280;51448;51.660;5.824;2023-01-26T14:39:17;102280.56;;;6.86;100.00